Time,TemperatureF,DewpointF,PressureIn,WindDirection,WindDirectionDegrees,WindSpeedMPH,WindSpeedGustMPH,Humidity,HourlyPrecipIn,Conditions,Clouds,dailyrainin,SoftwareType,DateUTC
2013-03-08 00:03:00,30.7,28.8,29.86,SSW,197,0.0,0.0,92,0.00,,---,0.00,VWS V14.00,2013-03-08 08:03:00,
2013-03-08 00:12:00,30.4,28.5,29.86,SSW,197,0.0,0.0,92,0.00,,---,0.00,VWS V14.00,2013-03-08 08:12:00,
2013-03-08 00:17:00,30.5,28.3,29.86,SSW,197,0.0,0.0,92,0.00,,---,0.00,VWS V14.00,2013-03-08 08:17:00,
2013-03-08 00:22:00,30.6,28.4,29.86,SSW,197,0.0,0.0,92,0.00,,---,0.00,VWS V14.00,2013-03-08 08:22:00,
2013-03-08 00:27:00,30.6,28.4,29.86,SSW,197,0.0,0.0,92,0.00,,---,0.00,VWS V14.00,2013-03-08 08:27:00,
2013-03-08 00:32:00,30.4,28.2,29.86,SSW,196,0.0,0.0,92,0.00,,---,0.00,VWS V14.00,2013-03-08 08:32:00,
2013-03-08 00:37:00,30.3,28.4,29.86,SSW,197,0.0,0.0,92,0.00,,---,0.00,VWS V14.00,2013-03-08 08:37:00,
2013-03-08 00:42:00,30.3,28.4,29.86,SSW,196,0.0,0.0,92,0.00,,---,0.00,VWS V14.00,2013-03-08 08:42:00,
2013-03-08 00:47:00,30.4,28.5,29.86,SSW,196,0.0,0.0,92,0.00,,---,0.00,VWS V14.00,2013-03-08 08:47:00,
2013-03-08 00:52:00,30.4,28.5,29.86,SSW,197,0.0,0.0,92,0.00,,---,0.00,VWS V14.00,2013-03-08 08:52:00,
2013-03-08 00:57:00,30.3,28.4,29.86,SSW,197,0.0,0.0,92,0.00,,---,0.00,VWS V14.00,2013-03-08 08:57:00,
2013-03-08 01:02:00,30.3,28.4,29.86,SSW,197,0.0,0.0,92,0.00,,---,0.00,VWS V14.00,2013-03-08 09:02:00,
2013-03-08 01:07:00,30.3,28.4,29.86,SSW,196,0.0,0.0,92,0.00,,---,0.00,VWS V14.00,2013-03-08 09:07:00,
2013-03-08 01:12:00,30.3,28.4,29.86,SSW,197,0.0,0.0,92,0.00,,---,0.00,VWS V14.00,2013-03-08 09:12:00,
2013-03-08 01:17:00,30.2,28.0,29.86,SSW,197,0.0,0.0,92,0.00,,---,0.00,VWS V14.00,2013-03-08 09:17:00,
2013-03-08 01:22:00,30.1,27.9,29.86,SSW,196,0.0,0.0,92,0.00,,---,0.00,VWS V14.00,2013-03-08 09:22:00,
2013-03-08 01:27:00,29.9,27.7,29.86,SSW,196,0.0,0.0,92,0.00,,---,0.00,VWS V14.00,2013-03-08 09:27:00,
2013-03-08 01:32:00,29.8,27.6,29.86,SSW,197,0.0,0.0,92,0.00,,---,0.00,VWS V14.00,2013-03-08 09:32:00,
2013-03-08 01:37:00,29.8,27.6,29.86,SSW,197,0.0,0.0,92,0.00,,---,0.00,VWS V14.00,2013-03-08 09:37:00,
2013-03-08 01:42:00,29.7,27.5,29.86,SSW,196,0.0,0.0,92,0.00,,---,0.00,VWS V14.00,2013-03-08 09:42:00,
2013-03-08 01:47:00,29.6,27.4,29.86,SSW,197,0.0,0.0,92,0.00,,---,0.00,VWS V14.00,2013-03-08 09:47:00,
2013-03-08 01:52:00,29.5,27.3,29.86,SSW,197,0.0,0.0,92,0.00,,---,0.00,VWS V14.00,2013-03-08 09:52:00,
2013-03-08 01:57:00,29.4,27.2,29.86,SSW,196,0.0,0.0,92,0.00,,---,0.00,VWS V14.00,2013-03-08 09:57:00,
2013-03-08 02:02:00,29.1,26.9,29.85,SSW,196,0.0,0.0,92,0.00,,---,0.00,VWS V14.00,2013-03-08 10:02:00,
2013-03-08 02:07:00,28.8,26.6,29.85,SSW,197,0.0,0.0,92,0.00,,---,0.00,VWS V14.00,2013-03-08 10:07:00,
2013-03-08 02:12:00,28.7,26.3,29.85,SSW,197,0.0,0.0,90,0.00,,---,0.00,VWS V14.00,2013-03-08 10:12:00,
2013-03-08 02:22:00,28.5,26.1,29.85,SSW,196,0.0,0.0,90,0.00,,---,0.00,VWS V14.00,2013-03-08 10:22:00,
2013-03-08 02:27:00,28.4,26.0,29.85,SSW,197,0.0,0.0,90,0.00,,---,0.00,VWS V14.00,2013-03-08 10:27:00,
2013-03-08 02:37:00,28.8,26.4,29.84,SSW,196,0.0,0.0,90,0.00,,---,0.00,VWS V14.00,2013-03-08 10:37:00,
2013-03-08 02:42:00,28.9,26.5,29.84,SSW,196,0.0,0.0,90,0.00,,---,0.00,VWS V14.00,2013-03-08 10:42:00,
2013-03-08 02:47:00,29.0,26.6,29.84,SSW,197,0.0,0.0,90,0.00,,---,0.00,VWS V14.00,2013-03-08 10:47:00,
2013-03-08 02:52:00,29.0,26.6,29.84,SSW,197,0.0,0.0,90,0.00,,---,0.00,VWS V14.00,2013-03-08 10:52:00,
2013-03-08 02:57:00,28.8,26.4,29.84,SSW,196,0.0,0.0,90,0.00,,---,0.00,VWS V14.00,2013-03-08 10:57:00,
2013-03-08 03:02:00,28.8,26.4,29.84,SSW,197,0.0,0.0,90,0.00,,---,0.00,VWS V14.00,2013-03-08 11:02:00,
2013-03-08 03:07:00,28.8,26.4,29.83,SSW,197,0.0,0.0,90,0.00,,---,0.00,VWS V14.00,2013-03-08 11:07:00,
2013-03-08 03:12:00,29.0,26.6,29.83,SSW,197,0.0,0.0,90,0.00,,---,0.00,VWS V14.00,2013-03-08 11:12:00,
2013-03-08 03:17:00,29.1,26.7,29.83,SSW,196,0.0,0.0,90,0.00,,---,0.00,VWS V14.00,2013-03-08 11:17:00,
2013-03-08 03:22:00,29.2,26.8,29.83,SSW,197,0.0,0.0,90,0.00,,---,0.00,VWS V14.00,2013-03-08 11:22:00,
2013-03-08 03:27:00,29.2,26.8,29.83,SSW,197,0.0,0.0,90,0.00,,---,0.00,VWS V14.00,2013-03-08 11:27:00,
2013-03-08 03:32:00,29.3,26.9,29.83,SSW,196,0.0,0.0,90,0.00,,---,0.00,VWS V14.00,2013-03-08 11:32:00,
2013-03-08 03:37:00,29.2,26.8,29.83,SSW,196,0.0,0.0,90,0.00,,---,0.00,VWS V14.00,2013-03-08 11:37:00,
2013-03-08 03:42:00,29.2,26.8,29.83,SSW,196,0.0,0.0,90,0.00,,---,0.00,VWS V14.00,2013-03-08 11:42:00,
2013-03-08 03:47:00,28.7,26.0,29.83,SSW,197,0.0,0.0,90,0.00,,---,0.00,VWS V14.00,2013-03-08 11:47:00,
2013-03-08 03:52:00,28.4,26.0,29.83,SSW,197,0.0,0.0,90,0.00,,---,0.00,VWS V14.00,2013-03-08 11:52:00,
2013-03-08 03:57:00,28.1,25.7,29.83,SSW,197,0.0,0.0,90,0.00,,---,0.00,VWS V14.00,2013-03-08 11:57:00,
2013-03-08 04:02:00,27.9,25.5,29.83,SSW,197,0.0,0.0,90,0.00,,---,0.00,VWS V14.00,2013-03-08 12:02:00,
2013-03-08 04:12:00,27.8,25.4,29.83,SSW,196,0.0,0.0,90,0.00,,---,0.00,VWS V14.00,2013-03-08 12:12:00,
2013-03-08 04:17:00,27.9,25.5,29.83,SSW,197,0.0,0.0,90,0.00,,---,0.00,VWS V14.00,2013-03-08 12:17:00,
2013-03-08 04:27:00,28.0,25.6,29.83,SSW,196,0.0,0.0,90,0.00,,---,0.00,VWS V14.00,2013-03-08 12:27:00,
2013-03-08 04:32:00,28.0,25.9,29.83,SSW,196,0.0,0.0,92,0.00,,---,0.00,VWS V14.00,2013-03-08 12:32:00,
2013-03-08 04:37:00,28.0,25.9,29.83,SSW,197,0.0,0.0,92,0.00,,---,0.00,VWS V14.00,2013-03-08 12:37:00,
2013-03-08 04:42:00,28.0,25.9,29.83,SSW,197,0.0,0.0,92,0.00,,---,0.00,VWS V14.00,2013-03-08 12:42:00,
2013-03-08 04:47:00,28.1,26.0,29.83,SSW,196,0.0,0.0,92,0.00,,---,0.00,VWS V14.00,2013-03-08 12:47:00,
2013-03-08 04:52:00,28.2,26.0,29.83,SSW,197,0.0,0.0,92,0.00,,---,0.00,VWS V14.00,2013-03-08 12:52:00,
2013-03-08 04:57:00,28.3,26.1,29.83,SSW,197,0.0,0.0,92,0.00,,---,0.00,VWS V14.00,2013-03-08 12:57:00,
2013-03-08 05:07:00,28.5,26.3,29.83,SSW,196,0.0,0.0,92,0.00,,---,0.00,VWS V14.00,2013-03-08 13:07:00,
2013-03-08 05:12:00,28.5,26.3,29.83,SSW,197,0.0,0.0,92,0.00,,---,0.00,VWS V14.00,2013-03-08 13:12:00,
2013-03-08 05:17:00,28.6,26.4,29.83,SSW,197,0.0,0.0,92,0.00,,---,0.00,VWS V14.00,2013-03-08 13:17:00,
2013-03-08 05:22:00,28.7,26.5,29.83,SSW,196,0.0,0.0,92,0.00,,---,0.00,VWS V14.00,2013-03-08 13:22:00,
2013-03-08 05:32:00,28.8,26.6,29.83,SSW,197,0.0,0.0,92,0.00,,---,0.00,VWS V14.00,2013-03-08 13:32:00,
2013-03-08 05:37:00,29.0,27.1,29.83,SSW,197,0.0,0.0,92,0.00,,---,0.00,VWS V14.00,2013-03-08 13:37:00,
2013-03-08 05:42:00,29.0,27.1,29.83,SSW,197,0.0,0.0,92,0.00,,---,0.00,VWS V14.00,2013-03-08 13:42:00,
2013-03-08 05:47:00,29.1,26.9,29.84,SSW,196,0.0,0.0,92,0.00,,---,0.00,VWS V14.00,2013-03-08 13:47:00,
2013-03-08 05:52:00,29.2,27.0,29.84,SSW,197,0.0,0.0,92,0.00,,---,0.00,VWS V14.00,2013-03-08 13:52:00,
2013-03-08 05:57:00,29.2,27.0,29.83,SSW,197,0.0,0.0,92,0.00,,---,0.00,VWS V14.00,2013-03-08 13:57:00,
2013-03-08 06:02:00,29.2,27.0,29.84,SSW,197,0.0,0.0,92,0.00,,---,0.00,VWS V14.00,2013-03-08 14:02:00,
2013-03-08 06:12:00,29.1,26.9,29.84,SSW,197,0.0,0.0,92,0.00,,---,0.00,VWS V14.00,2013-03-08 14:12:00,
2013-03-08 06:17:00,29.1,26.9,29.84,SSW,197,0.0,0.0,92,0.00,,---,0.00,VWS V14.00,2013-03-08 14:17:00,
2013-03-08 06:22:00,29.2,27.0,29.83,SSW,196,0.0,0.0,92,0.00,,---,0.00,VWS V14.00,2013-03-08 14:22:00,
2013-03-08 06:27:00,29.2,27.0,29.83,SSW,197,0.0,0.0,92,0.00,,---,0.00,VWS V14.00,2013-03-08 14:27:00,
2013-03-08 06:32:00,29.2,27.0,29.84,SSW,197,0.0,0.0,92,0.00,,---,0.00,VWS V14.00,2013-03-08 14:32:00,
2013-03-08 06:37:00,29.2,27.0,29.84,SSW,197,0.0,0.0,92,0.00,,---,0.00,VWS V14.00,2013-03-08 14:37:00,
2013-03-08 06:42:00,29.3,27.1,29.84,SSW,196,0.0,0.0,92,0.00,,---,0.00,VWS V14.00,2013-03-08 14:42:00,
2013-03-08 06:47:00,29.3,27.1,29.84,SSW,197,0.0,0.0,92,0.00,,---,0.00,VWS V14.00,2013-03-08 14:47:00,
2013-03-08 06:52:00,29.4,27.2,29.84,SSW,197,0.0,0.0,92,0.00,,---,0.00,VWS V14.00,2013-03-08 14:52:00,
2013-03-08 06:57:00,29.6,27.4,29.84,SSW,196,0.0,0.0,92,0.00,,---,0.00,VWS V14.00,2013-03-08 14:57:00,
2013-03-08 07:02:00,29.7,27.5,29.84,SSW,197,0.0,0.0,92,0.00,,---,0.00,VWS V14.00,2013-03-08 15:02:00,
2013-03-08 07:12:00,29.8,27.6,29.84,SSW,197,0.0,0.0,92,0.00,,---,0.00,VWS V14.00,2013-03-08 15:12:00,
2013-03-08 07:17:00,29.9,27.7,29.84,SSW,196,0.0,0.0,92,0.00,,---,0.00,VWS V14.00,2013-03-08 15:17:00,
2013-03-08 07:22:00,29.9,27.7,29.84,SSW,197,0.0,0.0,92,0.00,,---,0.00,VWS V14.00,2013-03-08 15:22:00,
2013-03-08 07:27:00,29.9,27.7,29.84,SSW,197,0.0,0.0,92,0.00,,---,0.00,VWS V14.00,2013-03-08 15:27:00,
2013-03-08 07:32:00,29.9,27.7,29.84,SSW,196,0.0,0.0,92,0.00,,---,0.00,VWS V14.00,2013-03-08 15:32:00,
2013-03-08 07:37:00,30.0,27.8,29.85,SSW,196,0.0,0.0,92,0.00,,---,0.00,VWS V14.00,2013-03-08 15:37:00,
2013-03-08 07:42:00,30.0,27.8,29.85,SSW,197,0.0,0.0,92,0.00,,---,0.00,VWS V14.00,2013-03-08 15:42:00,
2013-03-08 07:47:00,30.1,27.9,29.85,SSW,197,0.0,0.0,92,0.00,,---,0.00,VWS V14.00,2013-03-08 15:47:00,
2013-03-08 07:57:00,30.2,28.0,29.85,SSW,196,0.0,0.0,92,0.00,,---,0.00,VWS V14.00,2013-03-08 15:57:00,
2013-03-08 08:02:00,30.2,28.0,29.85,SSW,197,0.0,0.0,92,0.00,,---,0.00,VWS V14.00,2013-03-08 16:02:00,
2013-03-08 08:12:00,30.2,28.0,29.85,SSW,196,0.0,0.0,92,0.00,,---,0.00,VWS V14.00,2013-03-08 16:12:00,
2013-03-08 08:17:00,30.2,28.0,29.85,SSW,197,0.0,0.0,92,0.00,,---,0.00,VWS V14.00,2013-03-08 16:17:00,
2013-03-08 08:22:00,30.4,28.2,29.85,SSW,197,0.0,0.0,92,0.00,,---,0.00,VWS V14.00,2013-03-08 16:22:00,
2013-03-08 08:27:00,30.5,28.3,29.85,SSW,197,0.0,0.0,92,0.00,,---,0.00,VWS V14.00,2013-03-08 16:27:00,
2013-03-08 08:32:00,30.7,28.5,29.86,SSW,196,0.0,0.0,92,0.00,,---,0.00,VWS V14.00,2013-03-08 16:32:00,
2013-03-08 08:42:00,30.8,28.6,29.85,SSW,197,0.0,0.0,92,0.00,,---,0.00,VWS V14.00,2013-03-08 16:42:00,
2013-03-08 08:47:00,30.8,28.6,29.85,SSW,196,0.0,0.0,92,0.00,,---,0.00,VWS V14.00,2013-03-08 16:47:00,
2013-03-08 08:52:00,30.9,28.7,29.85,SSW,196,0.0,0.0,92,0.00,,---,0.00,VWS V14.00,2013-03-08 16:52:00,
2013-03-08 08:57:00,31.0,28.8,29.85,SSW,197,0.0,0.0,92,0.00,,---,0.00,VWS V14.00,2013-03-08 16:57:00,
2013-03-08 09:07:00,31.5,29.3,29.86,SSW,197,0.0,0.0,92,0.00,,---,0.00,VWS V14.00,2013-03-08 17:07:00,
2013-03-08 09:12:00,31.7,29.5,29.85,SSW,196,0.0,0.0,92,0.00,,---,0.00,VWS V14.00,2013-03-08 17:12:00,
2013-03-08 09:17:00,31.9,29.7,29.86,SSW,197,0.0,0.0,92,0.00,,---,0.00,VWS V14.00,2013-03-08 17:17:00,
2013-03-08 09:22:00,32.0,29.8,29.85,SSW,196,0.0,0.0,92,0.01,,---,0.01,VWS V14.00,2013-03-08 17:22:00,
2013-03-08 09:27:00,32.2,29.7,29.86,SSW,197,0.0,0.0,90,0.01,,---,0.01,VWS V14.00,2013-03-08 17:27:00,
2013-03-08 09:37:00,32.4,29.9,29.85,SSW,197,0.0,0.0,90,0.01,,---,0.01,VWS V14.00,2013-03-08 17:37:00,
2013-03-08 09:42:00,32.5,30.0,29.86,SSW,197,0.0,0.0,90,0.01,,---,0.01,VWS V14.00,2013-03-08 17:42:00,
2013-03-08 09:47:00,32.4,29.7,29.86,SSW,196,0.0,0.0,90,0.02,,---,0.02,VWS V14.00,2013-03-08 17:47:00,
2013-03-08 09:52:00,32.6,29.9,29.86,SSW,197,0.0,0.0,90,0.02,,---,0.02,VWS V14.00,2013-03-08 17:52:00,
2013-03-08 09:57:00,32.7,30.0,29.86,SSW,197,0.0,0.0,90,0.02,,---,0.02,VWS V14.00,2013-03-08 17:57:00,
2013-03-08 10:02:00,32.7,29.7,29.86,SSW,196,0.0,0.0,88,0.02,,---,0.02,VWS V14.00,2013-03-08 18:02:00,
2013-03-08 10:07:00,32.8,29.8,29.86,SSW,197,0.0,0.0,88,0.02,,---,0.02,VWS V14.00,2013-03-08 18:07:00,
2013-03-08 10:12:00,33.1,30.1,29.86,SSW,197,0.0,0.0,88,0.02,,---,0.02,VWS V14.00,2013-03-08 18:12:00,
2013-03-08 10:22:00,33.2,29.9,29.86,SSW,196,0.0,0.0,88,0.02,,---,0.02,VWS V14.00,2013-03-08 18:22:00,
2013-03-08 10:32:00,33.4,29.8,29.86,SSW,197,0.0,0.0,86,0.01,,---,0.02,VWS V14.00,2013-03-08 18:32:00,
2013-03-08 10:37:00,33.7,30.1,29.86,SSW,196,0.0,0.0,86,0.01,,---,0.02,VWS V14.00,2013-03-08 18:37:00,
2013-03-08 10:47:00,34.2,30.3,29.86,SSW,196,0.0,0.0,86,0.01,,---,0.02,VWS V14.00,2013-03-08 18:47:00,
2013-03-08 10:52:00,34.2,30.3,29.86,SSW,197,0.0,0.0,86,0.00,,---,0.02,VWS V14.00,2013-03-08 18:52:00,
2013-03-08 11:02:00,34.4,30.2,29.86,SSW,197,0.0,0.0,84,0.00,,---,0.02,VWS V14.00,2013-03-08 19:02:00,
2013-03-08 11:12:00,35.0,30.5,29.85,SSW,197,0.0,0.0,84,0.00,,---,0.02,VWS V14.00,2013-03-08 19:12:00,
2013-03-08 11:17:00,35.1,30.3,29.85,SSW,197,0.0,0.0,82,0.00,,---,0.02,VWS V14.00,2013-03-08 19:17:00,
2013-03-08 11:22:00,35.5,30.4,29.85,SSW,197,0.0,0.0,82,0.00,,---,0.02,VWS V14.00,2013-03-08 19:22:00,
2013-03-08 11:32:00,36.0,30.6,29.85,SSW,196,0.0,1.0,80,0.00,,---,0.02,VWS V14.00,2013-03-08 19:32:00,
2013-03-08 11:37:00,36.0,30.0,29.85,SSW,197,0.0,0.0,78,0.00,,---,0.02,VWS V14.00,2013-03-08 19:37:00,
2013-03-08 11:42:00,36.3,30.3,29.85,SSW,197,0.0,0.0,78,0.00,,---,0.02,VWS V14.00,2013-03-08 19:42:00,
2013-03-08 11:52:00,36.7,30.3,29.85,SSW,197,5.0,8.0,78,0.00,,---,0.02,VWS V14.00,2013-03-08 19:52:00,
2013-03-08 12:02:00,36.7,30.3,29.85,SSW,197,2.0,6.0,78,0.00,,---,0.02,VWS V14.00,2013-03-08 20:02:00,
2013-03-08 12:12:00,37.4,30.7,29.85,SSW,196,5.0,7.0,76,0.00,,---,0.02,VWS V14.00,2013-03-08 20:12:00,
2013-03-08 12:17:00,37.7,30.7,29.85,SSW,197,6.0,7.0,76,0.00,,---,0.02,VWS V14.00,2013-03-08 20:17:00,
2013-03-08 12:27:00,37.9,30.5,29.84,SSW,197,6.0,7.0,74,0.00,,---,0.02,VWS V14.00,2013-03-08 20:27:00,
2013-03-08 12:37:00,38.2,30.1,29.84,SSW,196,5.0,7.0,72,0.00,,---,0.02,VWS V14.00,2013-03-08 20:37:00,
2013-03-08 12:42:00,38.5,30.4,29.84,SSW,196,0.0,7.0,72,0.00,,---,0.02,VWS V14.00,2013-03-08 20:42:00,
2013-03-08 12:47:00,38.8,30.0,29.84,SSW,196,4.0,9.0,70,0.00,,---,0.02,VWS V14.00,2013-03-08 20:47:00,
2013-03-08 12:57:00,38.6,29.1,29.84,SSW,197,0.0,7.0,68,0.00,,---,0.02,VWS V14.00,2013-03-08 20:57:00,
2013-03-08 13:07:00,39.0,28.4,29.84,SSW,196,4.0,4.0,66,0.00,,---,0.02,VWS V14.00,2013-03-08 21:07:00,
2013-03-08 13:12:00,39.3,28.0,29.84,SSW,197,0.0,6.0,64,0.00,,---,0.02,VWS V14.00,2013-03-08 21:12:00,
2013-03-08 13:17:00,39.2,27.5,29.83,SSW,197,0.0,0.0,62,0.00,,---,0.02,VWS V14.00,2013-03-08 21:17:00,
2013-03-08 13:22:00,39.0,26.5,29.83,SSW,196,0.0,4.0,60,0.00,,---,0.02,VWS V14.00,2013-03-08 21:22:00,
2013-03-08 13:27:00,39.3,27.6,29.83,SSW,196,0.0,0.0,62,0.00,,---,0.02,VWS V14.00,2013-03-08 21:27:00,
2013-03-08 13:32:00,39.7,28.0,29.83,SSW,197,0.0,6.0,62,0.00,,---,0.02,VWS V14.00,2013-03-08 21:32:00,
2013-03-08 13:42:00,39.1,27.0,29.83,SSW,197,0.0,0.0,62,0.00,,---,0.02,VWS V14.00,2013-03-08 21:42:00,
2013-03-08 13:52:00,39.0,26.9,29.83,SSW,197,0.0,0.0,62,0.00,,---,0.02,VWS V14.00,2013-03-08 21:52:00,
2013-03-08 13:57:00,38.9,26.4,29.83,SSW,196,0.0,0.0,60,0.00,,---,0.02,VWS V14.00,2013-03-08 21:57:00,
2013-03-08 14:02:00,39.0,26.5,29.83,SSW,197,0.0,0.0,60,0.00,,---,0.02,VWS V14.00,2013-03-08 22:02:00,
2013-03-08 14:07:00,39.1,26.6,29.83,SSW,197,0.0,0.0,60,0.00,,---,0.02,VWS V14.00,2013-03-08 22:07:00,
2013-03-08 14:12:00,39.2,26.7,29.83,SSW,196,0.0,0.0,60,0.00,,---,0.02,VWS V14.00,2013-03-08 22:12:00,
2013-03-08 14:22:00,39.6,25.9,29.83,SSW,196,0.0,0.0,58,0.00,,---,0.02,VWS V14.00,2013-03-08 22:22:00,
2013-03-08 14:27:00,39.7,26.4,29.83,SSW,197,0.0,0.0,58,0.00,,---,0.02,VWS V14.00,2013-03-08 22:27:00,
2013-03-08 14:37:00,39.8,26.0,29.83,SSW,197,0.0,0.0,58,0.00,,---,0.02,VWS V14.00,2013-03-08 22:37:00,
2013-03-08 14:47:00,40.2,26.4,29.83,SSW,197,0.0,0.0,58,0.00,,---,0.02,VWS V14.00,2013-03-08 22:47:00,
2013-03-08 14:52:00,40.0,26.2,29.83,SSW,197,0.0,0.0,58,0.00,,---,0.02,VWS V14.00,2013-03-08 22:52:00,
2013-03-08 15:07:00,40.0,26.2,29.83,SSW,196,0.0,0.0,58,0.00,,---,0.02,VWS V14.00,2013-03-08 23:07:00,
2013-03-08 15:12:00,40.0,25.8,29.83,SSW,197,0.0,0.0,56,0.00,,---,0.02,VWS V14.00,2013-03-08 23:12:00,
2013-03-08 15:17:00,40.1,25.9,29.83,SSW,196,0.0,0.0,56,0.00,,---,0.02,VWS V14.00,2013-03-08 23:17:00,
2013-03-08 15:27:00,40.2,25.6,29.83,SSW,197,0.0,0.0,56,0.00,,---,0.02,VWS V14.00,2013-03-08 23:27:00,
2013-03-08 15:32:00,40.2,26.0,29.83,SSW,196,0.0,0.0,56,0.00,,---,0.02,VWS V14.00,2013-03-08 23:32:00,
2013-03-08 15:37:00,40.1,25.5,29.83,SSW,196,0.0,0.0,56,0.00,,---,0.02,VWS V14.00,2013-03-08 23:37:00,
2013-03-08 15:42:00,40.1,25.5,29.83,SSW,196,0.0,0.0,56,0.00,,---,0.02,VWS V14.00,2013-03-08 23:42:00,
2013-03-08 15:47:00,40.0,25.4,29.83,SSW,197,0.0,0.0,56,0.00,,---,0.02,VWS V14.00,2013-03-08 23:47:00,
2013-03-08 15:52:00,39.9,25.7,29.83,SSW,197,0.0,0.0,56,0.00,,---,0.02,VWS V14.00,2013-03-08 23:52:00,
2013-03-08 15:57:00,39.9,26.5,29.83,SSW,196,0.0,0.0,58,0.00,,---,0.02,VWS V14.00,2013-03-08 23:57:00,
2013-03-08 16:02:00,39.9,25.7,29.83,SSW,197,0.0,0.0,56,0.00,,---,0.02,VWS V14.00,2013-03-09 00:02:00,
2013-03-08 16:07:00,39.9,25.7,29.83,SSW,197,0.0,0.0,56,0.00,,---,0.02,VWS V14.00,2013-03-09 00:07:00,
2013-03-08 16:12:00,39.9,25.7,29.83,SSW,196,0.0,0.0,56,0.00,,---,0.02,VWS V14.00,2013-03-09 00:12:00,
2013-03-08 16:17:00,39.8,24.8,29.83,SSW,196,0.0,0.0,54,0.00,,---,0.02,VWS V14.00,2013-03-09 00:17:00,
2013-03-08 16:22:00,39.8,24.3,29.83,SSW,197,0.0,0.0,54,0.00,,---,0.02,VWS V14.00,2013-03-09 00:22:00,
2013-03-08 16:27:00,39.7,24.2,29.84,SSW,197,0.0,0.0,54,0.00,,---,0.02,VWS V14.00,2013-03-09 00:27:00,
2013-03-08 16:32:00,39.6,25.9,29.84,SSW,197,0.0,0.0,58,0.00,,---,0.02,VWS V14.00,2013-03-09 00:32:00,
2013-03-08 16:37:00,39.4,25.7,29.84,SSW,196,0.0,0.0,58,0.00,,---,0.02,VWS V14.00,2013-03-09 00:37:00,
2013-03-08 16:42:00,39.3,25.6,29.84,SSW,197,0.0,0.0,58,0.00,,---,0.02,VWS V14.00,2013-03-09 00:42:00,
2013-03-08 16:47:00,39.2,25.9,29.84,SSW,196,0.0,0.0,58,0.00,,---,0.02,VWS V14.00,2013-03-09 00:47:00,
2013-03-08 16:52:00,39.2,25.9,29.84,SSW,196,0.0,0.0,58,0.00,,---,0.02,VWS V14.00,2013-03-09 00:52:00,
2013-03-08 16:57:00,39.1,25.8,29.84,SSW,197,0.0,0.0,58,0.00,,---,0.02,VWS V14.00,2013-03-09 00:57:00,
2013-03-08 17:02:00,38.9,26.0,29.84,SSW,197,0.0,0.0,60,0.00,,---,0.02,VWS V14.00,2013-03-09 01:02:00,
2013-03-08 17:07:00,38.8,26.3,29.84,SSW,197,0.0,0.0,60,0.00,,---,0.02,VWS V14.00,2013-03-09 01:07:00,
2013-03-08 17:12:00,38.6,26.1,29.84,SSW,196,0.0,0.0,60,0.00,,---,0.02,VWS V14.00,2013-03-09 01:12:00,
2013-03-08 17:17:00,38.5,26.0,29.85,SSW,197,0.0,0.0,60,0.00,,---,0.02,VWS V14.00,2013-03-09 01:17:00,
2013-03-08 17:27:00,38.2,26.1,29.85,SSW,197,0.0,0.0,62,0.00,,---,0.02,VWS V14.00,2013-03-09 01:27:00,
2013-03-08 17:32:00,38.0,26.4,29.85,SSW,197,0.0,0.0,62,0.00,,---,0.02,VWS V14.00,2013-03-09 01:32:00,
2013-03-08 17:37:00,37.9,26.2,29.85,SSW,197,0.0,0.0,62,0.00,,---,0.02,VWS V14.00,2013-03-09 01:37:00,
2013-03-08 17:42:00,37.8,26.5,29.85,SSW,197,0.0,0.0,64,0.00,,---,0.02,VWS V14.00,2013-03-09 01:42:00,
2013-03-08 17:47:00,37.4,27.3,29.86,SSW,196,0.0,0.0,66,0.00,,---,0.02,VWS V14.00,2013-03-09 01:47:00,
2013-03-08 17:52:00,37.1,27.4,29.86,SSW,197,0.0,0.0,68,0.00,,---,0.02,VWS V14.00,2013-03-09 01:52:00,
2013-03-08 17:57:00,36.8,28.1,29.86,SSW,197,0.0,0.0,70,0.00,,---,0.02,VWS V14.00,2013-03-09 01:57:00,
2013-03-08 18:02:00,36.5,28.2,29.86,SSW,197,0.0,0.0,72,0.00,,---,0.02,VWS V14.00,2013-03-09 02:02:00,
2013-03-08 18:07:00,36.2,28.2,29.86,SSW,196,0.0,0.0,72,0.00,,---,0.02,VWS V14.00,2013-03-09 02:07:00,
2013-03-08 18:12:00,36.0,28.0,29.86,SSW,197,0.0,0.0,72,0.00,,---,0.02,VWS V14.00,2013-03-09 02:12:00,
2013-03-08 18:17:00,35.8,28.2,29.86,SSW,197,0.0,0.0,74,0.00,,---,0.02,VWS V14.00,2013-03-09 02:17:00,
2013-03-08 18:22:00,35.7,28.1,29.86,SSW,196,0.0,0.0,74,0.00,,---,0.02,VWS V14.00,2013-03-09 02:22:00,
2013-03-08 18:27:00,35.5,27.9,29.87,SSW,196,0.0,0.0,74,0.00,,---,0.02,VWS V14.00,2013-03-09 02:27:00,
2013-03-08 18:32:00,35.5,27.9,29.87,SSW,197,0.0,0.0,74,0.00,,---,0.02,VWS V14.00,2013-03-09 02:32:00,
2013-03-08 18:37:00,35.6,27.6,29.87,SSW,197,0.0,0.0,72,0.00,,---,0.02,VWS V14.00,2013-03-09 02:37:00,
2013-03-08 18:42:00,35.7,27.7,29.87,SSW,197,0.0,0.0,72,0.00,,---,0.02,VWS V14.00,2013-03-09 02:42:00,
2013-03-08 18:47:00,35.7,27.7,29.88,SSW,197,0.0,0.0,72,0.00,,---,0.02,VWS V14.00,2013-03-09 02:47:00,
2013-03-08 18:52:00,35.8,27.5,29.88,SSW,197,0.0,0.0,72,0.00,,---,0.02,VWS V14.00,2013-03-09 02:52:00,
2013-03-08 18:57:00,35.8,27.5,29.88,SSW,196,0.0,0.0,72,0.00,,---,0.02,VWS V14.00,2013-03-09 02:57:00,
2013-03-08 19:02:00,35.8,27.2,29.88,SSW,196,0.0,0.0,70,0.00,,---,0.02,VWS V14.00,2013-03-09 03:02:00,
2013-03-08 19:07:00,35.7,27.1,29.88,SSW,197,0.0,0.0,70,0.00,,---,0.02,VWS V14.00,2013-03-09 03:07:00,
2013-03-08 19:12:00,35.6,27.0,29.89,SSW,197,0.0,0.0,70,0.00,,---,0.02,VWS V14.00,2013-03-09 03:12:00,
2013-03-08 19:17:00,35.6,27.0,29.89,SSW,197,0.0,0.0,70,0.00,,---,0.02,VWS V14.00,2013-03-09 03:17:00,
2013-03-08 19:22:00,35.7,27.1,29.89,SSW,196,0.0,0.0,70,0.00,,---,0.02,VWS V14.00,2013-03-09 03:22:00,
2013-03-08 19:27:00,35.6,28.3,29.90,SSW,197,0.0,0.0,74,0.00,,---,0.02,VWS V14.00,2013-03-09 03:27:00,
2013-03-08 19:32:00,35.4,26.8,29.90,SSW,197,0.0,0.0,70,0.00,,---,0.02,VWS V14.00,2013-03-09 03:32:00,
2013-03-08 19:37:00,35.2,26.6,29.90,SSW,196,0.0,0.0,70,0.00,,---,0.02,VWS V14.00,2013-03-09 03:37:00,
2013-03-08 19:42:00,35.0,26.7,29.90,SSW,196,0.0,0.0,72,0.00,,---,0.02,VWS V14.00,2013-03-09 03:42:00,
2013-03-08 19:47:00,35.0,26.7,29.90,SSW,197,0.0,0.0,72,0.00,,---,0.02,VWS V14.00,2013-03-09 03:47:00,
2013-03-08 19:52:00,35.2,26.6,29.90,SSW,197,0.0,0.0,70,0.00,,---,0.02,VWS V14.00,2013-03-09 03:52:00,
2013-03-08 19:57:00,35.1,26.5,29.90,SSW,197,0.0,0.0,70,0.00,,---,0.02,VWS V14.00,2013-03-09 03:57:00,
2013-03-08 20:02:00,35.2,26.6,29.90,SSW,197,0.0,0.0,70,0.00,,---,0.02,VWS V14.00,2013-03-09 04:02:00,
2013-03-08 20:07:00,35.2,26.2,29.90,SSW,197,0.0,0.0,70,0.00,,---,0.02,VWS V14.00,2013-03-09 04:07:00,
2013-03-08 20:12:00,35.0,26.4,29.91,SSW,196,0.0,0.0,70,0.00,,---,0.02,VWS V14.00,2013-03-09 04:12:00,
2013-03-08 20:17:00,34.7,26.1,29.91,SSW,196,0.0,0.0,70,0.00,,---,0.02,VWS V14.00,2013-03-09 04:17:00,
2013-03-08 20:22:00,33.8,25.6,29.91,SSW,197,0.0,0.0,72,0.00,,---,0.02,VWS V14.00,2013-03-09 04:22:00,
2013-03-08 20:27:00,33.0,25.5,29.91,SSW,196,0.0,0.0,74,0.00,,---,0.02,VWS V14.00,2013-03-09 04:27:00,
2013-03-08 20:37:00,32.4,25.5,29.91,SSW,197,0.0,0.0,76,0.00,,---,0.02,VWS V14.00,2013-03-09 04:37:00,
2013-03-08 20:47:00,32.5,25.6,29.92,SSW,197,0.0,0.0,76,0.00,,---,0.02,VWS V14.00,2013-03-09 04:47:00,
2013-03-08 20:52:00,32.5,25.6,29.92,SSW,197,0.0,0.0,76,0.00,,---,0.02,VWS V14.00,2013-03-09 04:52:00,
2013-03-08 20:57:00,32.5,25.6,29.92,SSW,197,0.0,0.0,76,0.00,,---,0.02,VWS V14.00,2013-03-09 04:57:00,
2013-03-08 21:02:00,32.6,25.7,29.92,SSW,197,0.0,0.0,76,0.00,,---,0.02,VWS V14.00,2013-03-09 05:02:00,
2013-03-08 21:07:00,33.0,25.8,29.92,SSW,196,0.0,0.0,74,0.00,,---,0.02,VWS V14.00,2013-03-09 05:07:00,
2013-03-08 21:17:00,32.6,25.4,29.92,SSW,197,0.0,0.0,74,0.00,,---,0.02,VWS V14.00,2013-03-09 05:17:00,
2013-03-08 21:22:00,32.5,25.3,29.93,SSW,197,0.0,0.0,74,0.00,,---,0.02,VWS V14.00,2013-03-09 05:22:00,
2013-03-08 21:27:00,32.5,25.6,29.93,SSW,197,0.0,0.0,76,0.00,,---,0.02,VWS V14.00,2013-03-09 05:27:00,
2013-03-08 21:32:00,32.7,25.5,29.93,SSW,196,0.0,0.0,74,0.00,,---,0.02,VWS V14.00,2013-03-09 05:32:00,
2013-03-08 21:37:00,32.9,25.7,29.93,SSW,197,0.0,0.0,74,0.00,,---,0.02,VWS V14.00,2013-03-09 05:37:00,
2013-03-08 21:42:00,32.0,25.1,29.93,SSW,197,0.0,0.0,76,0.00,,---,0.02,VWS V14.00,2013-03-09 05:42:00,
2013-03-08 21:47:00,31.4,24.9,29.93,SSW,196,0.0,0.0,76,0.00,,---,0.02,VWS V14.00,2013-03-09 05:47:00,
2013-03-08 21:52:00,31.2,25.0,29.94,SSW,196,0.0,0.0,78,0.00,,---,0.02,VWS V14.00,2013-03-09 05:52:00,
2013-03-08 21:57:00,31.5,25.3,29.94,SSW,197,0.0,0.0,78,0.00,,---,0.02,VWS V14.00,2013-03-09 05:57:00,
2013-03-08 22:02:00,32.0,25.5,29.94,SSW,197,0.0,0.0,76,0.00,,---,0.02,VWS V14.00,2013-03-09 06:02:00,
2013-03-08 22:07:00,32.4,25.5,29.94,SSW,197,0.0,0.0,76,0.00,,---,0.02,VWS V14.00,2013-03-09 06:07:00,
2013-03-08 22:12:00,31.8,25.0,29.94,SSW,196,0.0,0.0,76,0.00,,---,0.02,VWS V14.00,2013-03-09 06:12:00,
2013-03-08 22:17:00,31.5,25.0,29.94,SSW,197,0.0,0.0,76,0.00,,---,0.02,VWS V14.00,2013-03-09 06:17:00,
2013-03-08 22:22:00,31.2,24.7,29.95,SSW,196,0.0,0.0,76,0.00,,---,0.02,VWS V14.00,2013-03-09 06:22:00,
2013-03-08 22:32:00,31.6,25.1,29.95,SSW,197,0.0,0.0,76,0.00,,---,0.02,VWS V14.00,2013-03-09 06:32:00,
2013-03-08 22:37:00,31.8,25.3,29.95,SSW,197,0.0,0.0,76,0.00,,---,0.02,VWS V14.00,2013-03-09 06:37:00,
2013-03-08 22:42:00,31.9,25.0,29.95,SSW,197,0.0,0.0,76,0.00,,---,0.02,VWS V14.00,2013-03-09 06:42:00,
2013-03-08 22:47:00,31.7,25.2,29.95,SSW,197,0.0,0.0,76,0.00,,---,0.02,VWS V14.00,2013-03-09 06:47:00,
2013-03-08 22:52:00,31.6,25.1,29.95,SSW,197,0.0,0.0,76,0.00,,---,0.02,VWS V14.00,2013-03-09 06:52:00,
2013-03-08 22:57:00,31.5,25.0,29.95,SSW,196,0.0,0.0,76,0.00,,---,0.02,VWS V14.00,2013-03-09 06:57:00,
2013-03-08 23:02:00,31.6,25.1,29.95,SSW,196,0.0,0.0,76,0.00,,---,0.02,VWS V14.00,2013-03-09 07:02:00,
2013-03-08 23:12:00,32.5,25.3,29.95,SSW,197,0.0,0.0,74,0.00,,---,0.02,VWS V14.00,2013-03-09 07:12:00,
2013-03-08 23:17:00,33.0,25.1,29.95,SSW,197,0.0,0.0,72,0.00,,---,0.02,VWS V14.00,2013-03-09 07:17:00,
2013-03-08 23:22:00,33.6,25.4,29.96,SSW,197,0.0,0.0,72,0.00,,---,0.02,VWS V14.00,2013-03-09 07:22:00,
2013-03-08 23:27:00,32.4,24.9,29.96,SSW,197,6.0,7.0,74,0.00,,---,0.02,VWS V14.00,2013-03-09 07:27:00,
2013-03-08 23:32:00,31.7,24.5,29.96,SSW,196,0.0,6.0,74,0.00,,---,0.02,VWS V14.00,2013-03-09 07:32:00,
2013-03-08 23:42:00,31.4,24.6,29.97,SSW,196,0.0,0.0,76,0.00,,---,0.02,VWS V14.00,2013-03-09 07:42:00,
2013-03-08 23:47:00,31.3,24.5,29.97,SSW,197,0.0,0.0,76,0.00,,---,0.02,VWS V14.00,2013-03-09 07:47:00,
2013-03-08 23:52:00,31.4,24.2,29.97,SSW,197,0.0,0.0,74,0.00,,---,0.02,VWS V14.00,2013-03-09 07:52:00,
2013-03-08 23:57:00,31.6,24.4,29.97,SSW,196,0.0,0.0,74,0.00,,---,0.02,VWS V14.00,2013-03-09 07:57:00,